England Ranch, South Dakota
Current Conditions -  °F | °C
As of 2:55 PM on Friday 24 Oct 2014 (Local Time) from KPHP Reporting Station
Clear Clear  
Wind Chill: 78°   Ceiling: Unl
Heat Index: 78°   Visibility: 10mi
Dew Point: 34°   Wind: 7mph
Humidity: 20%   Direction: 350°N
Pressure: 29.94"   Gusts: NA
Location:  44.3169°N, 101.368°W
Report Text: KPHP 242055Z AUTO 35006KT 10SM CLR 26/01 A2994 RMK AO2 SLP132 T02560011 56006
Loading
Personal Weather Stations






























Interactive Weather Map
Tropical Storm Tracking
New forecast layout! Learn more

10-Day Weather Forecast

Advertisements
Track Severe Weather on mobile